createdAt,value
2024-01-27T00:00:36.389Z,102030.28
2024-01-27T00:03:04.058Z,102058.41
2024-01-27T00:05:31.998Z,102066.41
2024-01-27T00:07:59.511Z,102059.50
2024-01-27T00:10:26.719Z,102062.16
2024-01-27T00:12:53.906Z,102071.81
2024-01-27T00:15:21.174Z,102062.59
2024-01-27T00:17:48.483Z,102057.66
2024-01-27T00:20:15.766Z,102065.28
2024-01-27T00:22:42.801Z,102079.59
2024-01-27T00:25:09.951Z,102078.16
2024-01-27T00:27:37.735Z,102035.25
2024-01-27T00:30:05.747Z,102065.56
2024-01-27T00:32:35.308Z,102068.97
2024-01-27T00:35:02.641Z,102070.19
2024-01-27T00:37:30.091Z,102074.03
2024-01-27T00:39:57.153Z,102072.56
2024-01-27T00:42:25.959Z,102068.00
2024-01-27T00:44:53.526Z,102064.06
2024-01-27T00:47:20.766Z,102075.72
2024-01-27T00:49:47.951Z,102079.56
2024-01-27T00:52:15.209Z,102062.13
2024-01-27T00:54:42.340Z,102084.81
2024-01-27T00:57:09.521Z,102086.47
2024-01-27T00:59:36.582Z,102074.16
2024-01-27T01:02:03.855Z,102086.84
2024-01-27T01:04:31.508Z,102075.16
2024-01-27T01:06:59.034Z,102087.66
2024-01-27T01:09:26.373Z,102091.44
2024-01-27T01:11:53.719Z,102080.97
2024-01-27T01:14:20.913Z,102087.94
2024-01-27T01:16:48.033Z,102091.25
2024-01-27T01:19:15.220Z,102092.06
2024-01-27T01:21:42.187Z,102101.34
2024-01-27T01:24:09.347Z,102102.63
2024-01-27T01:26:36.361Z,102113.09
2024-01-27T01:29:03.563Z,102104.09
2024-01-27T01:31:30.592Z,102090.78
2024-01-27T01:33:57.833Z,102111.06
2024-01-27T01:36:25.225Z,102108.78
2024-01-27T01:38:52.337Z,102120.06
2024-01-27T01:41:19.359Z,102118.59
2024-01-27T01:43:46.548Z,102105.09
2024-01-27T01:46:13.626Z,102110.16
2024-01-27T01:48:41.050Z,102099.50
2024-01-27T01:51:09.874Z,102112.00
2024-01-27T01:53:37.199Z,102119.53
2024-01-27T01:56:05.770Z,102104.56
2024-01-27T01:58:35.584Z,102142.47
2024-01-27T02:01:03.089Z,102132.84
2024-01-27T02:03:30.381Z,102134.03
2024-01-27T02:05:57.773Z,102128.44
2024-01-27T02:08:25.186Z,102132.09
2024-01-27T02:10:52.341Z,102133.75
2024-01-27T02:13:20.296Z,102160.84
2024-01-27T02:15:50.159Z,102157.53
2024-01-27T02:18:18.359Z,102164.72
2024-01-27T02:20:45.896Z,102156.16
2024-01-27T02:23:13.459Z,102160.94
2024-01-27T02:25:40.581Z,102165.09
2024-01-27T02:28:07.768Z,102159.28
2024-01-27T02:30:34.930Z,102163.88
2024-01-27T02:33:03.627Z,102183.81
2024-01-27T02:35:30.966Z,102173.81
2024-01-27T02:37:58.260Z,102176.94
2024-01-27T02:40:25.340Z,102172.88
2024-01-27T02:42:52.343Z,102177.84
2024-01-27T02:45:19.404Z,102179.31
2024-01-27T02:47:46.863Z,102173.34
2024-01-27T02:50:14.306Z,102178.31
2024-01-27T02:52:41.444Z,102185.28
2024-01-27T02:55:08.869Z,102196.41
2024-01-27T02:57:36.105Z,102183.44
2024-01-27T03:00:03.770Z,102183.91
2024-01-27T03:02:30.848Z,102188.78
2024-01-27T03:04:58.155Z,102185.47
2024-01-27T03:07:25.375Z,102190.44
2024-01-27T03:09:52.356Z,102191.91
2024-01-27T03:12:19.594Z,102198.06
2024-01-27T03:14:47.692Z,102204.78
2024-01-27T03:17:14.751Z,102193.28
2024-01-27T03:19:41.887Z,102202.56
2024-01-27T03:22:09.019Z,102199.44
2024-01-27T03:24:36.168Z,102200.19
2024-01-27T03:27:03.565Z,102199.81
2024-01-27T03:29:30.592Z,102209.00
2024-01-27T03:31:57.623Z,102202.66
2024-01-27T03:34:26.185Z,102201.75
2024-01-27T03:36:53.703Z,102214.03
2024-01-27T03:39:20.945Z,102207.44
2024-01-27T03:41:48.142Z,102206.69
2024-01-27T03:44:15.571Z,102212.75
2024-01-27T03:46:42.631Z,102187.66
2024-01-27T03:49:10.141Z,102194.72
2024-01-27T03:51:38.150Z,102212.41
2024-01-27T03:54:05.712Z,102218.81
2024-01-27T03:56:32.818Z,102223.22
2024-01-27T03:58:59.874Z,102226.41
2024-01-27T04:01:26.957Z,102227.13
2024-01-27T04:03:54.204Z,102248.56
2024-01-27T04:06:21.534Z,102242.47
2024-01-27T04:08:48.678Z,102240.34
2024-01-27T04:11:23.195Z,102262.00
2024-01-27T04:13:52.231Z,102259.84
2024-01-27T04:16:19.614Z,102255.06
2024-01-27T04:18:47.569Z,102266.06
2024-01-27T04:21:14.825Z,102260.44
2024-01-27T04:23:42.117Z,102265.94
2024-01-27T04:26:10.790Z,102264.97
2024-01-27T04:28:38.763Z,102263.16
2024-01-27T04:31:06.463Z,102263.31
2024-01-27T04:33:34.193Z,102275.13
2024-01-27T04:36:01.563Z,102274.47
2024-01-27T04:38:28.757Z,102282.47
2024-01-27T04:40:56.376Z,102301.59
2024-01-27T04:43:23.618Z,102282.81
2024-01-27T04:45:50.885Z,102305.56
2024-01-27T04:48:18.194Z,102313.22
2024-01-27T04:50:45.508Z,102292.59
2024-01-27T04:53:12.604Z,102321.16
2024-01-27T04:55:39.841Z,102320.28
2024-01-27T04:58:08.595Z,102308.09
2024-01-27T05:00:35.962Z,102306.91
2024-01-27T05:03:06.326Z,102327.34
2024-01-27T05:05:36.432Z,102322.47
2024-01-27T05:08:05.097Z,102324.97
2024-01-27T05:10:32.128Z,102318.94
2024-01-27T05:12:59.097Z,102327.75
2024-01-27T05:15:26.541Z,102340.22
2024-01-27T05:17:54.013Z,102338.38
2024-01-27T05:20:21.285Z,102342.53
2024-01-27T05:22:48.429Z,102348.31
2024-01-27T05:25:16.410Z,102350.97
2024-01-27T05:27:43.422Z,102358.97
2024-01-27T05:30:11.177Z,102353.66
2024-01-27T05:32:39.294Z,102360.94
2024-01-27T05:35:07.234Z,102360.75
2024-01-27T05:37:34.358Z,102349.28
2024-01-27T05:40:01.377Z,102364.91
2024-01-27T05:42:28.533Z,102359.56
2024-01-27T05:44:55.638Z,102360.56
2024-01-27T05:47:22.703Z,102361.22
2024-01-27T05:49:49.911Z,102367.03
2024-01-27T05:52:24.673Z,102360.03
2024-01-27T05:54:53.983Z,102356.72
2024-01-27T05:57:21.506Z,102368.84
2024-01-27T05:59:48.865Z,102353.88
2024-01-27T06:02:18.852Z,102372.00
2024-01-27T06:04:46.068Z,102377.97
2024-01-27T06:07:13.534Z,102367.03
2024-01-27T06:09:40.884Z,102382.47
2024-01-27T06:12:08.277Z,102393.63
2024-01-27T06:14:35.500Z,102377.47
2024-01-27T06:17:06.260Z,102394.75
2024-01-27T06:19:33.582Z,102405.06
2024-01-27T06:22:03.616Z,102401.38
2024-01-27T06:24:32.700Z,102396.19
2024-01-27T06:26:59.951Z,102399.69
2024-01-27T06:29:28.160Z,102403.16
2024-01-27T06:31:55.426Z,102422.09
2024-01-27T06:34:22.648Z,102431.22
2024-01-27T06:36:50.123Z,102418.91
2024-01-27T06:39:17.251Z,102412.22
2024-01-27T06:41:44.237Z,102437.03
2024-01-27T06:44:11.285Z,102427.66
2024-01-27T06:46:38.251Z,102436.63
2024-01-27T06:49:05.585Z,102453.59
2024-01-27T06:51:32.851Z,102446.44
2024-01-27T06:54:00.074Z,102460.06
2024-01-27T06:56:27.249Z,102459.53
2024-01-27T06:58:54.373Z,102477.34
2024-01-27T07:01:22.242Z,102463.03
2024-01-27T07:03:49.576Z,102479.00
2024-01-27T07:06:17.035Z,102477.19
2024-01-27T07:08:44.195Z,102482.50
2024-01-27T07:11:11.490Z,102481.50
2024-01-27T07:13:38.653Z,102493.81
2024-01-27T07:16:06.592Z,102483.63
2024-01-27T07:18:36.258Z,102491.81
2024-01-27T07:21:06.610Z,102509.28
2024-01-27T07:23:36.554Z,102480.97
2024-01-27T07:26:04.678Z,102503.94
2024-01-27T07:28:32.015Z,102512.59
2024-01-27T07:30:59.353Z,102513.91
2024-01-27T07:33:26.775Z,102512.25
2024-01-27T07:35:54.065Z,102516.03
2024-01-27T07:38:21.306Z,102529.66
2024-01-27T07:40:48.398Z,102540.16
2024-01-27T07:43:15.552Z,102540.78
2024-01-27T07:45:42.784Z,102539.13
2024-01-27T07:48:10.085Z,102546.25
2024-01-27T07:50:37.253Z,102536.09
2024-01-27T07:53:04.543Z,102536.09
2024-01-27T07:55:31.601Z,102550.72
2024-01-27T07:57:59.180Z,102539.03
2024-01-27T08:00:26.141Z,102551.00
2024-01-27T08:02:53.399Z,102558.31
2024-01-27T08:05:22.234Z,102566.78
2024-01-27T08:07:50.072Z,102561.91
2024-01-27T08:10:17.323Z,102552.16
2024-01-27T08:12:44.407Z,102560.19
2024-01-27T08:15:11.498Z,102557.16
2024-01-27T08:17:38.781Z,102564.16
2024-01-27T08:20:06.994Z,102569.13
2024-01-27T08:22:34.140Z,102559.94
2024-01-27T08:25:01.178Z,102580.56
2024-01-27T08:27:28.330Z,102575.88
2024-01-27T08:29:58.164Z,102578.00
2024-01-27T08:32:25.824Z,102582.13
2024-01-27T08:34:53.167Z,102599.63
2024-01-27T08:37:21.552Z,102593.41
2024-01-27T08:39:48.726Z,102589.84
2024-01-27T08:42:16.245Z,102591.13
2024-01-27T08:44:43.402Z,102595.91
2024-01-27T08:47:10.614Z,102592.94
2024-01-27T08:49:37.778Z,102595.22
2024-01-27T08:52:05.366Z,102591.72
2024-01-27T08:54:32.616Z,102591.72
2024-01-27T08:56:59.722Z,102594.22
2024-01-27T08:59:26.929Z,102595.50
2024-01-27T09:01:53.912Z,102614.84
2024-01-27T09:04:21.097Z,102598.63
2024-01-27T09:06:48.420Z,102596.63
2024-01-27T09:09:15.633Z,102609.41
2024-01-27T09:11:43.819Z,102601.41
2024-01-27T09:14:11.017Z,102610.25
2024-01-27T09:16:38.174Z,102610.53
2024-01-27T09:19:05.606Z,102615.97
2024-01-27T09:21:34.016Z,102610.72
2024-01-27T09:24:03.469Z,102615.59
2024-01-27T09:26:30.632Z,102611.34
2024-01-27T09:28:58.258Z,102612.63
2024-01-27T09:31:26.490Z,102608.38
2024-01-27T09:33:55.365Z,102624.69
2024-01-27T09:36:23.477Z,102631.78
2024-01-27T09:38:50.975Z,102631.88
2024-01-27T09:41:18.525Z,102625.44
2024-01-27T09:43:47.528Z,102638.69
2024-01-27T09:46:18.507Z,102640.44
2024-01-27T09:48:46.540Z,102644.56
2024-01-27T09:51:14.207Z,102641.72
2024-01-27T09:53:41.660Z,102651.59
2024-01-27T09:56:10.137Z,102650.56
2024-01-27T09:58:37.942Z,102654.53
2024-01-27T10:01:06.939Z,102654.13
2024-01-27T10:03:36.168Z,102656.38
2024-01-27T10:06:05.329Z,102655.09
2024-01-27T10:08:32.523Z,102667.44
2024-01-27T10:11:00.094Z,102653.06
2024-01-27T10:13:27.818Z,102657.19
2024-01-27T10:16:09.426Z,102643.19
2024-01-27T10:18:36.856Z,102658.31
2024-01-27T10:21:19.509Z,102668.28
2024-01-27T10:23:46.751Z,102657.19
2024-01-27T10:26:13.759Z,102656.44
2024-01-27T10:28:41.214Z,102658.09
2024-01-27T10:31:14.939Z,102650.34
2024-01-27T10:33:54.830Z,102663.91
2024-01-27T10:36:22.276Z,102661.59
2024-01-27T10:38:49.366Z,102656.31
2024-01-27T10:41:27.455Z,102665.63
2024-01-27T10:43:55.832Z,102666.13
2024-01-27T10:46:23.458Z,102671.41
2024-01-27T10:48:54.315Z,102670.47
2024-01-27T10:51:32.794Z,102677.72
2024-01-27T10:54:04.362Z,102670.72
2024-01-27T10:56:38.059Z,102684.19
2024-01-27T10:59:09.453Z,102681.97
2024-01-27T11:01:39.288Z,102685.09
2024-01-27T11:04:08.736Z,102680.56
2024-01-27T11:06:37.119Z,102682.59
2024-01-27T11:09:05.539Z,102673.56
2024-01-27T11:11:34.109Z,102689.81
2024-01-27T11:14:01.277Z,102691.09
2024-01-27T11:16:29.595Z,102687.00
2024-01-27T11:18:57.050Z,102683.56
2024-01-27T11:21:24.107Z,102684.19
2024-01-27T11:23:51.737Z,102694.28
2024-01-27T11:26:24.626Z,102690.97
2024-01-27T11:28:52.407Z,102703.09
2024-01-27T11:31:20.712Z,102698.50
2024-01-27T11:33:54.166Z,102698.75
2024-01-27T11:36:26.395Z,102700.47
2024-01-27T11:38:55.065Z,102693.31
2024-01-27T11:41:29.841Z,102691.53
2024-01-27T11:44:01.025Z,102698.53
2024-01-27T11:46:28.850Z,102717.28
2024-01-27T11:48:56.554Z,102713.97
2024-01-27T11:51:24.786Z,102717.28
2024-01-27T11:53:52.388Z,102711.50
2024-01-27T11:56:19.520Z,102720.50
2024-01-27T11:58:51.386Z,102722.72
2024-01-27T12:01:19.195Z,102726.16
2024-01-27T12:03:47.241Z,102729.41
2024-01-27T12:06:15.658Z,102737.06
2024-01-27T12:08:48.682Z,102728.41
2024-01-27T12:11:20.520Z,102731.91
2024-01-27T12:13:50.618Z,102736.69
2024-01-27T12:16:18.737Z,102745.28
2024-01-27T12:18:57.034Z,102735.97
2024-01-27T12:21:25.033Z,102745.03
2024-01-27T12:24:01.082Z,102757.16
2024-01-27T12:26:30.640Z,102763.97
2024-01-27T12:28:58.993Z,102753.31
2024-01-27T12:31:27.328Z,102775.75
2024-01-27T12:34:00.469Z,102771.41
2024-01-27T12:36:28.158Z,102773.63
2024-01-27T12:39:01.565Z,102773.81
2024-01-27T12:41:30.226Z,102771.31
2024-01-27T12:43:57.913Z,102768.34
2024-01-27T12:46:25.251Z,102763.47
2024-01-27T12:48:52.852Z,102758.50
2024-01-27T12:51:20.754Z,102769.84
2024-01-27T12:53:48.419Z,102774.16
2024-01-27T12:56:16.709Z,102771.78
2024-01-27T12:58:44.069Z,102780.72
2024-01-27T13:01:11.500Z,102778.88
2024-01-27T13:03:40.781Z,102788.72
2024-01-27T13:06:12.284Z,102789.50
2024-01-27T13:08:39.732Z,102776.97
2024-01-27T13:11:06.870Z,102779.25
2024-01-27T13:13:33.832Z,102767.00
2024-01-27T13:16:01.462Z,102774.66
2024-01-27T13:18:28.776Z,102761.28
2024-01-27T13:20:55.962Z,102770.59
2024-01-27T13:23:23.497Z,102760.59
2024-01-27T13:26:02.590Z,102774.94
2024-01-27T13:28:38.399Z,102770.88
2024-01-27T13:31:06.189Z,102771.59
2024-01-27T13:33:35.386Z,102786.00
2024-01-27T13:36:03.271Z,102798.75
2024-01-27T13:38:30.511Z,102779.13
2024-01-27T13:40:57.721Z,102777.97
2024-01-27T13:43:24.965Z,102776.03
2024-01-27T13:45:52.808Z,102776.22
2024-01-27T13:48:20.268Z,102782.00
2024-01-27T13:50:47.519Z,102776.38
2024-01-27T13:53:15.050Z,102771.97
2024-01-27T13:55:43.950Z,102759.56
2024-01-27T13:58:11.529Z,102773.75
2024-01-27T14:00:38.656Z,102774.19
2024-01-27T14:03:05.865Z,102775.16
2024-01-27T14:05:33.131Z,102773.28
2024-01-27T14:08:00.647Z,102776.75
2024-01-27T14:10:28.585Z,102774.44
2024-01-27T14:12:55.587Z,102775.47
2024-01-27T14:15:22.814Z,102784.03
2024-01-27T14:17:50.060Z,102776.75
2024-01-27T14:20:17.706Z,102781.25
2024-01-27T14:22:45.413Z,102783.50
2024-01-27T14:25:12.641Z,102780.50
2024-01-27T14:27:40.399Z,102786.41
2024-01-27T14:30:08.491Z,102788.38
2024-01-27T14:32:35.926Z,102784.13
2024-01-27T14:35:07.185Z,102801.22
2024-01-27T14:37:34.952Z,102795.53
2024-01-27T14:40:02.419Z,102802.00
2024-01-27T14:42:31.444Z,102800.63
2024-01-27T14:45:00.141Z,102813.94
2024-01-27T14:47:27.435Z,102818.56
2024-01-27T14:49:54.525Z,102829.78
2024-01-27T14:52:23.299Z,102813.44
2024-01-27T14:54:50.655Z,102827.94
2024-01-27T14:57:17.931Z,102816.38
2024-01-27T14:59:45.288Z,102828.94
2024-01-27T15:02:12.417Z,102819.66
2024-01-27T15:04:39.748Z,102821.72
2024-01-27T15:07:07.494Z,102822.94
2024-01-27T15:09:34.753Z,102845.00
2024-01-27T15:12:02.137Z,102840.84
2024-01-27T15:14:29.962Z,102834.34
2024-01-27T15:16:58.530Z,102842.97
2024-01-27T15:19:26.059Z,102838.56
2024-01-27T15:21:53.328Z,102863.69
2024-01-27T15:24:20.565Z,102855.47
2024-01-27T15:26:47.810Z,102855.34
2024-01-27T15:29:14.781Z,102861.97
2024-01-27T15:31:41.951Z,102868.78
2024-01-27T15:34:09.804Z,102866.78
2024-01-27T15:36:37.300Z,102878.22
2024-01-27T15:39:04.732Z,102866.53
2024-01-27T15:41:32.338Z,102867.41
2024-01-27T15:43:59.688Z,102857.19
2024-01-27T15:46:26.801Z,102865.53
2024-01-27T15:48:54.182Z,102864.53
2024-01-27T15:51:21.691Z,102865.44
2024-01-27T15:53:48.719Z,102873.75
2024-01-27T15:56:15.957Z,102877.38
2024-01-27T15:58:43.049Z,102886.13
2024-01-27T16:01:10.196Z,102890.38
2024-01-27T16:03:38.503Z,102894.44
2024-01-27T16:06:06.944Z,102891.47
2024-01-27T16:08:34.137Z,102895.50
2024-01-27T16:11:01.112Z,102893.38
2024-01-27T16:13:28.298Z,102895.59
2024-01-27T16:15:55.672Z,102899.09
2024-01-27T16:18:23.122Z,102898.63
2024-01-27T16:20:51.008Z,102910.53
2024-01-27T16:23:18.323Z,102913.41
2024-01-27T16:25:45.445Z,102917.44
2024-01-27T16:28:12.625Z,102928.34
2024-01-27T16:30:41.639Z,102918.72
2024-01-27T16:33:08.807Z,102917.59
2024-01-27T16:35:35.975Z,102919.34
2024-01-27T16:38:03.247Z,102928.03
2024-01-27T16:40:30.518Z,102925.78
2024-01-27T16:42:58.167Z,102930.56
2024-01-27T16:45:25.600Z,102931.16
2024-01-27T16:47:52.863Z,102931.56
2024-01-27T16:50:20.133Z,102927.44
2024-01-27T16:52:47.301Z,102924.81
2024-01-27T16:55:14.697Z,102938.22
2024-01-27T16:57:41.925Z,102933.91
2024-01-27T17:00:12.969Z,102936.25
2024-01-27T17:02:40.692Z,102933.16
2024-01-27T17:05:08.240Z,102929.13
2024-01-27T17:07:35.851Z,102917.81
2024-01-27T17:10:07.228Z,102933.19
2024-01-27T17:12:34.931Z,102927.03
2024-01-27T17:15:02.321Z,102927.56
2024-01-27T17:17:30.182Z,102930.91
2024-01-27T17:19:57.392Z,102920.75
2024-01-27T17:22:24.442Z,102916.44
2024-01-27T17:24:51.744Z,102918.44
2024-01-27T17:27:19.697Z,102913.63
2024-01-27T17:29:47.673Z,102918.63
2024-01-27T17:32:14.868Z,102923.00
2024-01-27T17:34:44.190Z,102925.66
2024-01-27T17:37:12.205Z,102922.13
2024-01-27T17:39:39.530Z,102933.47
2024-01-27T17:42:08.748Z,102923.97
2024-01-27T17:44:37.535Z,102934.47
2024-01-27T17:47:05.073Z,102929.50
2024-01-27T17:49:32.372Z,102936.81
2024-01-27T17:51:59.710Z,102935.31
2024-01-27T17:54:28.197Z,102952.50
2024-01-27T17:56:56.478Z,102945.66
2024-01-27T17:59:23.826Z,102948.31
2024-01-27T18:01:50.845Z,102960.31
2024-01-27T18:04:18.031Z,102951.16
2024-01-27T18:06:45.206Z,102956.50
2024-01-27T18:09:12.448Z,102956.16
2024-01-27T18:11:39.951Z,102963.16
2024-01-27T18:14:07.293Z,102967.31
2024-01-27T18:16:34.321Z,102969.16
2024-01-27T18:19:01.523Z,102976.47
2024-01-27T18:21:28.597Z,102968.66
2024-01-27T18:23:55.858Z,102968.81
2024-01-27T18:26:23.375Z,102962.81
2024-01-27T18:28:51.620Z,102967.47
2024-01-27T18:31:19.904Z,102968.63
2024-01-27T18:33:50.498Z,102978.78
2024-01-27T18:36:18.558Z,102977.44
2024-01-27T18:38:48.910Z,102982.09
2024-01-27T18:41:16.170Z,102985.25
2024-01-27T18:43:43.281Z,102983.09
2024-01-27T18:46:10.424Z,102989.53
2024-01-27T18:48:38.549Z,102996.84
2024-01-27T18:51:06.650Z,102995.50
2024-01-27T18:53:35.368Z,103014.81
2024-01-27T18:56:06.800Z,103012.66
2024-01-27T18:58:34.504Z,103006.66
2024-01-27T19:01:20.607Z,103013.97
2024-01-27T19:03:48.094Z,103005.47
2024-01-27T19:06:15.473Z,103017.59
2024-01-27T19:08:43.070Z,103012.28
2024-01-27T19:11:10.116Z,103022.25
2024-01-27T19:13:37.384Z,103014.22
2024-01-27T19:16:05.137Z,103020.38
2024-01-27T19:18:34.191Z,103022.50
2024-01-27T19:21:01.500Z,103021.50
2024-01-27T19:23:29.055Z,103029.50
2024-01-27T19:25:56.438Z,103014.50
2024-01-27T19:28:24.120Z,103025.16
2024-01-27T19:30:51.190Z,103018.66
2024-01-27T19:33:18.421Z,103036.28
2024-01-27T19:35:45.638Z,103025.81
2024-01-27T19:38:12.822Z,103026.28
2024-01-27T19:40:40.154Z,103040.72
2024-01-27T19:43:07.357Z,103019.09
2024-01-27T19:45:34.655Z,103033.53
2024-01-27T19:48:02.058Z,103042.56
2024-01-27T19:50:29.466Z,103036.41
2024-01-27T19:52:56.848Z,103042.72
2024-01-27T19:55:24.069Z,103024.72
2024-01-27T19:57:51.638Z,103033.22
2024-01-27T20:00:19.900Z,103033.69
2024-01-27T20:02:47.371Z,103023.69
2024-01-27T20:05:14.644Z,103022.38
2024-01-27T20:07:41.950Z,103031.72
2024-01-27T20:10:09.542Z,103034.69
2024-01-27T20:12:39.190Z,103032.34
2024-01-27T20:15:07.809Z,103034.84
2024-01-27T20:17:35.592Z,103025.00
2024-01-27T20:20:05.651Z,103037.34
2024-01-27T20:22:33.120Z,103041.47
2024-01-27T20:25:00.639Z,103044.13
2024-01-27T20:27:28.029Z,103042.47
2024-01-27T20:29:55.192Z,103051.28
2024-01-27T20:32:22.449Z,103061.47
2024-01-27T20:34:50.329Z,103054.94
2024-01-27T20:37:18.061Z,103065.28
2024-01-27T20:39:46.478Z,103076.91
2024-01-27T20:42:16.012Z,103070.06
2024-01-27T20:44:43.197Z,103074.19
2024-01-27T20:47:10.219Z,103065.53
2024-01-27T20:49:37.627Z,103058.22
2024-01-27T20:52:05.526Z,103056.56
2024-01-27T20:54:35.004Z,103056.88
2024-01-27T20:57:02.904Z,103064.22
2024-01-27T20:59:30.214Z,103071.53
2024-01-27T21:02:03.084Z,103066.38
2024-01-27T21:04:30.205Z,103076.34
2024-01-27T21:06:57.633Z,103080.66
2024-01-27T21:09:25.206Z,103063.66
2024-01-27T21:11:52.774Z,103072.31
2024-01-27T21:14:19.775Z,103084.63
2024-01-27T21:16:48.067Z,103095.28
2024-01-27T21:19:15.198Z,103088.44
2024-01-27T21:21:42.525Z,103084.53
2024-01-27T21:26:42.314Z,103090.56
2024-01-27T21:29:10.829Z,103102.19
2024-01-27T21:31:38.131Z,103098.16
2024-01-27T21:34:05.298Z,103093.97
2024-01-27T21:36:32.541Z,103091.31
2024-01-27T21:39:00.252Z,103103.31
2024-01-27T21:41:27.652Z,103085.69
2024-01-27T21:43:57.104Z,103089.47
2024-01-27T21:46:25.330Z,103095.63
2024-01-27T21:48:52.816Z,103102.63
2024-01-27T21:51:20.197Z,103094.44
2024-01-27T21:53:47.374Z,103103.78
2024-01-27T21:56:14.796Z,103105.75
2024-01-27T21:58:42.706Z,103097.41
2024-01-27T22:01:10.041Z,103101.72
2024-01-27T22:03:40.657Z,103094.22
2024-01-27T22:06:09.188Z,103101.88
2024-01-27T22:08:37.821Z,103104.03
2024-01-27T22:11:06.460Z,103112.84
2024-01-27T22:13:33.692Z,103100.44
2024-01-27T22:16:02.122Z,103107.13
2024-01-27T22:18:31.732Z,103104.78
2024-01-27T22:20:59.126Z,103104.94
2024-01-27T22:23:26.971Z,103108.13
2024-01-27T22:25:54.206Z,103111.63
2024-01-27T22:28:21.374Z,103111.94
2024-01-27T22:30:48.691Z,103117.41
2024-01-27T22:33:17.761Z,103121.34
2024-01-27T22:35:45.254Z,103125.97
2024-01-27T22:38:12.376Z,103127.13
2024-01-27T22:40:39.577Z,103126.44
2024-01-27T22:43:07.008Z,103125.91
2024-01-27T22:45:34.384Z,103128.56
2024-01-27T22:48:04.295Z,103130.84
2024-01-27T22:50:31.564Z,103135.63
2024-01-27T22:52:58.796Z,103125.84
2024-01-27T22:55:25.995Z,103110.63
2024-01-27T22:57:53.188Z,103109.81
2024-01-27T23:00:34.803Z,103109.25
2024-01-27T23:03:07.078Z,103118.91
2024-01-27T23:05:35.419Z,103119.38
2024-01-27T23:08:03.027Z,103118.53
2024-01-27T23:10:34.296Z,103114.34
2024-01-27T23:13:02.654Z,103108.19
2024-01-27T23:15:30.263Z,103117.31
2024-01-27T23:17:57.507Z,103114.94
2024-01-27T23:20:25.257Z,103120.25
2024-01-27T23:22:53.512Z,103120.56
2024-01-27T23:25:21.449Z,103113.88
2024-01-27T23:27:48.594Z,103121.16
2024-01-27T23:30:15.971Z,103117.53
2024-01-27T23:32:43.965Z,103108.44
2024-01-27T23:35:11.848Z,103102.97
2024-01-27T23:37:39.081Z,103110.25
2024-01-27T23:40:08.009Z,103104.41
2024-01-27T23:42:37.231Z,103112.53
2024-01-27T23:45:05.040Z,103109.03
2024-01-27T23:47:32.186Z,103117.16
2024-01-27T23:50:00.686Z,103118.81
2024-01-27T23:52:28.679Z,103099.00
2024-01-27T23:54:55.704Z,103101.66
2024-01-27T23:57:22.753Z,103098.47
2024-01-27T23:59:50.009Z,103100.13
